Lower Island Cove, Canada
Current Conditions -  °F | °C
As of 5:00 AM on Thursday 29 Jan 2015 (Local Time) from CYYT Reporting Station
Drizzle Drizzle  
Wind Chill: 32°   Ceiling: 300
Heat Index: 41°   Visibility: 2mi
Dew Point: 41°   Wind: 18mph
Humidity: 100%   Direction: 240°WSW
Pressure: 29.79"   Gusts: NA
Location:  48°N, 53°W
Report Text: CYYT 290800Z 24016KT 2SM -DZ BR OVC003 05/05 A2979 RMK SF8 SLP091
Loading
Personal Weather Stations






























Interactive Weather Map New forecast layout! Learn more

10-Day Weather Forecast

Advertisements
Track Severe Weather on mobile